Time;durP1;ratioP1;P1;durP2;ratioP2;P2;SDS_P1;SDS_P2;PMS_P1;PMS_P2;Temp;Humidity;BMP_temperature;BMP_pressure;BME280_temperature;BME280_humidity;BME280_pressure;Samples;Min_cycle;Max_cycle;Signal;HPM_P1;HPM_P2
2023/04/15 00:00:59;;;;;;;7.00;3.37;;;9.60;99.90;;;;;;5082724;28;20466;-77
2023/04/15 00:03:27;;;;;;;5.30;4.27;;;9.70;99.90;;;;;;5090069;28;20907;-78
2023/04/15 00:05:55;;;;;;;5.60;4.03;;;9.60;99.90;;;;;;5081172;28;20491;-78
2023/04/15 00:08:22;;;;;;;11.03;4.10;;;9.60;99.90;;;;;;5053715;28;20471;-77
2023/04/15 00:10:49;;;;;;;10.53;4.50;;;9.50;99.90;;;;;;5074714;28;21454;-77
2023/04/15 00:13:17;;;;;;;10.63;4.57;;;9.50;99.90;;;;;;5044109;28;22252;-78
2023/04/15 00:15:44;;;;;;;6.53;4.70;;;9.60;99.90;;;;;;5056372;28;20531;-76
2023/04/15 00:18:11;;;;;;;5.60;3.67;;;9.60;99.90;;;;;;5072244;28;20937;-77
2023/04/15 00:20:38;;;;;;;5.87;4.13;;;9.50;99.90;;;;;;5076278;28;20536;-76
2023/04/15 00:23:07;;;;;;;7.50;4.50;;;9.60;99.90;;;;;;5076440;28;20532;-76
2023/04/15 00:25:36;;;;;;;7.67;5.60;;;9.50;99.90;;;;;;5080620;28;20656;-78
2023/04/15 00:28:07;;;;;;;5.90;3.67;;;9.60;99.90;;;;;;5085472;28;20480;-79
2023/04/15 00:30:37;;;;;;;4.47;4.00;;;9.50;99.90;;;;;;5076680;28;20493;-77
2023/04/15 00:33:05;;;;;;;5.90;3.63;;;9.50;99.90;;;;;;5046409;28;21045;-78
2023/04/15 00:35:32;;;;;;;7.17;4.30;;;9.60;99.90;;;;;;5046952;28;20535;-76
2023/04/15 00:37:59;;;;;;;5.70;4.30;;;9.60;99.90;;;;;;5082940;28;20467;-76
2023/04/15 00:40:28;;;;;;;6.20;4.13;;;9.50;99.90;;;;;;5041275;28;21009;-77
2023/04/15 00:42:55;;;;;;;5.87;3.60;;;9.40;99.90;;;;;;5077663;28;20456;-76
2023/04/15 00:45:22;;;;;;;5.40;3.73;;;9.40;99.90;;;;;;5070427;28;20826;-76
2023/04/15 00:47:51;;;;;;;5.67;3.77;;;9.20;99.90;;;;;;5083307;28;20944;-77
2023/04/15 00:50:18;;;;;;;5.30;3.27;;;9.20;99.90;;;;;;5085131;28;20455;-76
2023/04/15 00:52:45;;;;;;;4.80;3.40;;;9.20;99.90;;;;;;5082982;28;20663;-78
2023/04/15 00:55:12;;;;;;;4.20;3.80;;;9.10;99.90;;;;;;5094696;28;20842;-76
2023/04/15 00:57:41;;;;;;;10.60;3.83;;;9.10;99.90;;;;;;5086245;28;20490;-76
2023/04/15 01:00:10;;;;;;;5.93;3.80;;;9.00;99.90;;;;;;5076684;28;20461;-76
2023/04/15 01:02:38;;;;;;;7.80;4.10;;;8.90;99.90;;;;;;5085070;28;20484;-76
2023/04/15 01:05:07;;;;;;;8.53;4.23;;;8.80;99.90;;;;;;5080816;28;20860;-76
2023/04/15 01:07:34;;;;;;;6.50;3.73;;;8.70;99.90;;;;;;5059201;28;20428;-76
2023/04/15 01:10:03;;;;;;;4.63;3.37;;;8.70;99.90;;;;;;5077427;28;20489;-76
2023/04/15 01:12:33;;;;;;;5.60;3.50;;;8.70;99.90;;;;;;5091786;28;20565;-76
2023/04/15 01:15:02;;;;;;;5.27;3.70;;;8.70;99.90;;;;;;5079043;28;20503;-75
2023/04/15 01:17:29;;;;;;;11.87;4.50;;;8.50;99.90;;;;;;5041865;28;20694;-77
2023/04/15 01:19:57;;;;;;;8.43;4.97;;;8.50;99.90;;;;;;5077785;28;20549;-75
2023/04/15 01:22:26;;;;;;;5.20;3.93;;;8.50;99.90;;;;;;5075011;28;20481;-75
2023/04/15 01:25:03;;;;;;;6.90;5.17;;;8.30;99.90;;;;;;5085449;28;20724;-75
2023/04/15 01:27:34;;;;;;;5.97;3.30;;;8.20;99.90;;;;;;5073957;28;20564;-76
2023/04/15 01:30:04;;;;;;;8.33;4.60;;;8.10;99.90;;;;;;5083803;28;20690;-75
2023/04/15 01:32:33;;;;;;;9.40;4.30;;;8.10;99.90;;;;;;5071184;28;20805;-75
2023/04/15 01:35:01;;;;;;;5.10;3.60;;;8.00;99.90;;;;;;5084552;28;20490;-75
2023/04/15 01:37:29;;;;;;;7.20;3.67;;;8.00;99.90;;;;;;5074144;28;20432;-75
2023/04/15 01:39:58;;;;;;;4.77;3.87;;;8.00;99.90;;;;;;5083391;28;20540;-76
2023/04/15 01:42:26;;;;;;;10.53;4.70;;;7.90;99.90;;;;;;5097052;28;20471;-76
2023/04/15 01:44:55;;;;;;;15.73;5.90;;;7.90;99.90;;;;;;5086201;28;20464;-75
2023/04/15 01:47:22;;;;;;;6.33;3.63;;;7.90;99.90;;;;;;5051148;28;20486;-75
2023/04/15 01:49:49;;;;;;;9.80;5.03;;;7.80;99.90;;;;;;5077107;28;21131;-76
2023/04/15 01:52:17;;;;;;;6.90;3.50;;;7.70;99.90;;;;;;5083090;28;20523;-76
2023/04/15 01:54:44;;;;;;;5.60;3.53;;;7.50;99.90;;;;;;5088211;28;20509;-74
2023/04/15 01:57:12;;;;;;;7.10;4.80;;;7.40;99.90;;;;;;5084902;28;20457;-75
2023/04/15 01:59:42;;;;;;;8.90;4.87;;;7.40;99.90;;;;;;5080738;28;20579;-74
2023/04/15 02:02:11;;;;;;;6.17;3.90;;;7.40;99.90;;;;;;5052473;28;20450;-75
2023/04/15 02:04:38;;;;;;;6.50;3.83;;;7.50;99.90;;;;;;5085582;28;20946;-75
2023/04/15 02:07:05;;;;;;;5.20;3.87;;;7.40;99.90;;;;;;5083649;28;20962;-75
2023/04/15 02:09:33;;;;;;;6.20;4.50;;;7.50;99.90;;;;;;5078232;28;20477;-75
2023/04/15 02:12:00;;;;;;;7.73;4.33;;;7.50;99.90;;;;;;5084318;28;20964;-75
2023/04/15 02:14:31;;;;;;;5.47;4.30;;;7.40;99.90;;;;;;5083718;28;20539;-77
2023/04/15 02:17:05;;;;;;;7.60;3.83;;;7.30;99.90;;;;;;5070029;28;20454;-75
2023/04/15 02:19:34;;;;;;;16.20;4.00;;;7.20;99.90;;;;;;5085769;28;20542;-75
2023/04/15 02:22:02;;;;;;;5.43;3.13;;;7.30;99.90;;;;;;5075747;28;20468;-75
2023/04/15 02:24:30;;;;;;;4.30;3.40;;;7.30;99.90;;;;;;5079519;28;20536;-75
2023/04/15 02:26:57;;;;;;;6.93;5.30;;;7.30;99.90;;;;;;5082740;28;20436;-76
2023/04/15 02:29:24;;;;;;;6.27;4.20;;;7.30;99.90;;;;;;5076225;28;20440;-75
2023/04/15 02:31:51;;;;;;;6.83;4.03;;;7.20;99.90;;;;;;5081507;28;20541;-75
2023/04/15 02:34:18;;;;;;;6.73;4.30;;;7.20;99.90;;;;;;5078431;28;20917;-77
2023/04/15 02:36:48;;;;;;;10.97;4.63;;;7.20;99.90;;;;;;5071581;28;20508;-75
2023/04/15 02:39:17;;;;;;;6.00;3.40;;;7.20;99.90;;;;;;5085590;28;20461;-75
2023/04/15 02:41:46;;;;;;;5.80;3.60;;;7.00;99.90;;;;;;5079001;28;20508;-76
2023/04/15 02:44:13;;;;;;;6.13;4.87;;;6.70;99.90;;;;;;5076005;28;20455;-77
2023/04/15 02:46:42;;;;;;;2.83;2.63;;;6.70;99.90;;;;;;5079677;28;20513;-76
2023/04/15 02:49:10;;;;;;;5.73;4.87;;;6.70;99.90;;;;;;5063593;28;20715;-78
2023/04/15 02:51:37;;;;;;;7.10;3.50;;;6.90;99.90;;;;;;5032240;28;20478;-76
2023/04/15 02:54:06;;;;;;;5.93;4.00;;;6.90;99.90;;;;;;5073417;28;20491;-77
2023/04/15 02:56:33;;;;;;;5.90;3.73;;;6.80;99.90;;;;;;5082887;28;21676;-76
2023/04/15 02:59:00;;;;;;;5.90;4.07;;;6.70;99.90;;;;;;5084711;28;20448;-76
2023/04/15 03:01:27;;;;;;;8.67;4.47;;;6.70;99.90;;;;;;5073096;28;20803;-77
2023/04/15 03:03:54;;;;;;;6.10;3.97;;;6.50;99.90;;;;;;5082110;28;20796;-78
2023/04/15 03:06:28;;;;;;;7.53;4.90;;;6.60;99.90;;;;;;5041949;28;20527;-76
2023/04/15 03:08:55;;;;;;;5.70;4.23;;;6.50;99.90;;;;;;5076693;28;20442;-75
2023/04/15 03:11:25;;;;;;;6.10;3.63;;;6.50;99.90;;;;;;5080354;28;20505;-77
2023/04/15 03:13:52;;;;;;;5.50;4.97;;;6.60;99.90;;;;;;5087903;28;20459;-76
2023/04/15 03:16:19;;;;;;;8.17;4.20;;;6.50;99.90;;;;;;5076791;28;20569;-75
2023/04/15 03:18:46;;;;;;;6.80;3.80;;;6.50;99.90;;;;;;5084605;28;20476;-76
2023/04/15 03:21:16;;;;;;;6.33;4.33;;;6.60;99.90;;;;;;5074656;28;20432;-75
2023/04/15 03:23:43;;;;;;;6.20;4.10;;;6.50;99.90;;;;;;5093623;28;20504;-75
2023/04/15 03:26:10;;;;;;;6.10;5.50;;;6.50;99.90;;;;;;5089066;28;20432;-75
2023/04/15 03:28:38;;;;;;;7.93;4.97;;;6.50;99.90;;;;;;5075901;28;20686;-75
2023/04/15 03:31:07;;;;;;;5.40;3.93;;;6.60;99.90;;;;;;5089514;28;20484;-75
2023/04/15 03:33:35;;;;;;;7.50;4.63;;;6.50;99.90;;;;;;5092527;28;20519;-75
2023/04/15 03:36:02;;;;;;;5.17;4.27;;;6.50;99.90;;;;;;5082960;28;20502;-75
2023/04/15 03:38:29;;;;;;;7.77;4.30;;;6.50;99.90;;;;;;5086745;28;20507;-76
2023/04/15 03:40:58;;;;;;;13.30;6.60;;;6.50;99.90;;;;;;5084160;28;20543;-76
2023/04/15 03:43:26;;;;;;;6.60;4.77;;;6.40;99.90;;;;;;5091371;28;21136;-75
2023/04/15 03:45:54;;;;;;;10.47;6.30;;;6.40;99.90;;;;;;5072402;28;20424;-75
2023/04/15 03:48:21;;;;;;;7.00;4.60;;;6.30;99.90;;;;;;5081251;28;20445;-76
2023/04/15 03:50:48;;;;;;;6.13;4.23;;;6.40;99.90;;;;;;5087219;28;20450;-75
2023/04/15 03:53:15;;;;;;;6.10;4.57;;;6.40;99.90;;;;;;5079703;28;20444;-75
2023/04/15 03:55:43;;;;;;;5.90;3.67;;;6.40;99.90;;;;;;5084086;28;20453;-76
2023/04/15 03:58:11;;;;;;;6.73;5.00;;;6.40;99.90;;;;;;5088855;28;20429;-75
2023/04/15 04:00:41;;;;;;;7.73;6.00;;;6.40;99.90;;;;;;5074600;28;20465;-75
2023/04/15 04:03:10;;;;;;;5.60;4.97;;;6.40;99.90;;;;;;5081339;28;20545;-75
2023/04/15 04:05:40;;;;;;;5.73;4.13;;;6.30;99.90;;;;;;5066615;28;20475;-75
2023/04/15 04:08:07;;;;;;;7.77;5.60;;;6.30;99.90;;;;;;5074606;28;20424;-76
2023/04/15 04:10:34;;;;;;;5.07;4.23;;;6.30;99.90;;;;;;5083865;28;20974;-76
2023/04/15 04:13:01;;;;;;;8.60;4.63;;;6.30;99.90;;;;;;5080016;28;20461;-76
2023/04/15 04:15:28;;;;;;;7.17;4.80;;;6.20;99.90;;;;;;5081270;28;20460;-75
2023/04/15 04:17:55;;;;;;;10.70;4.30;;;6.10;99.90;;;;;;5078731;28;20457;-76
2023/04/15 04:20:24;;;;;;;5.13;3.67;;;6.10;99.90;;;;;;5084043;28;20478;-75
2023/04/15 04:22:54;;;;;;;6.10;4.77;;;6.10;99.90;;;;;;5081664;28;20527;-75
2023/04/15 04:25:21;;;;;;;11.43;4.23;;;6.00;99.90;;;;;;5077217;28;20970;-75
2023/04/15 04:27:48;;;;;;;7.90;4.40;;;6.10;99.90;;;;;;5086973;28;20428;-76
2023/04/15 04:30:15;;;;;;;3.87;3.47;;;6.10;99.90;;;;;;5063238;28;20427;-75
2023/04/15 04:32:43;;;;;;;10.43;5.03;;;6.00;99.90;;;;;;5076896;28;20508;-75
2023/04/15 04:35:10;;;;;;;13.67;7.40;;;5.90;99.90;;;;;;5085725;28;20487;-76
2023/04/15 04:37:38;;;;;;;10.77;6.83;;;6.00;99.90;;;;;;5080856;28;20912;-75
2023/04/15 04:40:06;;;;;;;5.63;4.03;;;5.90;99.90;;;;;;5067373;28;20450;-76
2023/04/15 04:42:34;;;;;;;6.40;4.80;;;6.00;99.90;;;;;;5071943;28;20529;-75
2023/04/15 04:45:03;;;;;;;5.63;3.70;;;6.00;99.90;;;;;;5051694;28;20823;-75
2023/04/15 04:47:30;;;;;;;5.77;4.27;;;6.10;99.90;;;;;;5099451;28;20433;-75
2023/04/15 04:49:57;;;;;;;5.33;4.63;;;6.20;99.90;;;;;;5084714;28;20862;-75
2023/04/15 04:52:24;;;;;;;10.67;3.83;;;6.10;99.90;;;;;;5080168;28;20510;-74
2023/04/15 04:54:53;;;;;;;8.83;4.17;;;6.00;99.90;;;;;;5088600;28;20892;-75
2023/04/15 04:57:19;;;;;;;5.90;4.07;;;6.00;99.90;;;;;;5080549;28;20590;-76
2023/04/15 04:59:46;;;;;;;5.33;4.47;;;5.90;99.90;;;;;;5077727;28;20482;-76
2023/04/15 05:02:14;;;;;;;5.80;5.23;;;5.80;99.90;;;;;;5091859;28;20503;-76
2023/04/15 05:04:41;;;;;;;8.13;4.43;;;5.80;99.90;;;;;;5076004;28;20842;-75
2023/04/15 05:07:08;;;;;;;13.63;6.10;;;5.70;99.90;;;;;;5076171;28;20969;-76
2023/04/15 05:09:35;;;;;;;9.00;4.90;;;5.80;99.90;;;;;;5084347;28;20541;-76
2023/04/15 05:12:04;;;;;;;7.87;5.37;;;5.80;99.90;;;;;;5083090;28;21093;-75
2023/04/15 05:14:33;;;;;;;10.70;7.10;;;5.80;99.90;;;;;;5075498;28;20507;-77
2023/04/15 05:17:00;;;;;;;7.17;5.03;;;5.80;99.90;;;;;;5084363;28;20433;-75
2023/04/15 05:19:27;;;;;;;8.80;4.77;;;6.10;99.90;;;;;;5075878;28;20472;-76
2023/04/15 05:21:54;;;;;;;8.87;4.00;;;6.10;99.90;;;;;;5079202;28;21070;-76
2023/04/15 05:24:23;;;;;;;10.10;5.17;;;6.20;99.90;;;;;;5066440;28;20452;-76
2023/04/15 05:26:50;;;;;;;7.83;5.90;;;6.20;99.90;;;;;;5057403;28;20503;-77
2023/04/15 05:29:19;;;;;;;6.10;4.63;;;6.20;99.90;;;;;;5065802;28;20543;-78
2023/04/15 05:31:46;;;;;;;6.87;4.83;;;6.20;99.90;;;;;;5081303;28;20825;-76
2023/04/15 05:34:14;;;;;;;4.00;3.60;;;6.30;99.90;;;;;;5082730;28;20879;-77
2023/04/15 05:36:44;;;;;;;8.33;4.23;;;6.40;99.90;;;;;;5086803;28;20477;-77
2023/04/15 05:39:11;;;;;;;6.40;4.57;;;6.40;99.90;;;;;;5030806;28;21043;-76
2023/04/15 05:41:39;;;;;;;8.70;5.50;;;6.50;99.90;;;;;;5079301;28;20442;-76
2023/04/15 05:44:09;;;;;;;12.60;5.00;;;6.40;99.90;;;;;;5087552;28;21062;-77
2023/04/15 05:46:38;;;;;;;6.80;4.93;;;6.30;99.90;;;;;;5103102;28;20986;-76
2023/04/15 05:49:05;;;;;;;8.53;4.73;;;6.30;99.90;;;;;;5087219;28;20877;-75
2023/04/15 05:51:32;;;;;;;9.03;5.40;;;6.30;99.90;;;;;;5083924;28;20460;-75
2023/04/15 05:54:01;;;;;;;11.60;5.50;;;6.30;99.90;;;;;;5084489;28;20980;-76
2023/04/15 05:56:28;;;;;;;15.33;5.57;;;6.40;99.90;;;;;;5072305;28;20461;-78
2023/04/15 05:58:56;;;;;;;8.53;5.13;;;6.70;99.90;;;;;;5089929;28;22481;-77
2023/04/15 06:01:24;;;;;;;9.10;6.27;;;6.70;99.90;;;;;;5063605;28;21077;-78
2023/04/15 06:03:52;;;;;;;9.13;5.10;;;6.90;99.90;;;;;;5072908;28;20477;-75
2023/04/15 06:06:19;;;;;;;11.80;6.10;;;7.10;99.90;;;;;;5069221;28;20872;-77
2023/04/15 06:08:47;;;;;;;6.73;3.90;;;7.30;99.90;;;;;;5071163;28;20428;-75
2023/04/15 06:11:14;;;;;;;8.70;4.30;;;7.50;99.90;;;;;;5084462;28;20498;-75
2023/04/15 06:13:41;;;;;;;6.30;5.20;;;7.50;99.90;;;;;;5086012;28;20457;-76
2023/04/15 06:16:08;;;;;;;10.10;6.13;;;7.60;99.90;;;;;;5082367;28;20503;-75
2023/04/15 06:18:35;;;;;;;11.70;5.57;;;7.80;99.90;;;;;;5064953;28;20463;-75
2023/04/15 06:21:03;;;;;;;9.87;7.37;;;7.80;99.90;;;;;;5081643;28;20802;-77
2023/04/15 06:23:30;;;;;;;10.47;6.70;;;8.00;99.90;;;;;;5073062;28;20547;-76
2023/04/15 06:25:58;;;;;;;6.83;5.73;;;8.10;99.90;;;;;;5078643;28;20443;-76
2023/04/15 06:28:25;;;;;;;11.30;6.83;;;8.30;99.90;;;;;;5080072;28;20953;-75
2023/04/15 06:30:53;;;;;;;11.80;8.40;;;8.40;99.90;;;;;;5093238;28;20442;-76
2023/04/15 06:33:20;;;;;;;7.73;5.00;;;8.50;99.90;;;;;;5084214;28;20460;-77
2023/04/15 06:35:48;;;;;;;7.90;6.57;;;8.60;99.90;;;;;;5090804;28;20723;-77
2023/04/15 06:38:17;;;;;;;8.53;5.53;;;8.70;99.90;;;;;;5087085;28;20477;-77
2023/04/15 06:40:44;;;;;;;8.70;5.50;;;8.70;99.90;;;;;;5072593;28;20447;-79
2023/04/15 06:43:11;;;;;;;9.20;6.10;;;8.80;99.90;;;;;;5087781;28;20519;-76
2023/04/15 06:45:41;;;;;;;9.90;5.70;;;8.90;99.90;;;;;;5067682;28;20444;-76
2023/04/15 06:48:08;;;;;;;14.50;6.50;;;9.00;99.90;;;;;;5038527;28;20473;-76
2023/04/15 06:50:35;;;;;;;9.93;4.97;;;9.30;99.90;;;;;;5047305;28;20437;-75
2023/04/15 06:53:02;;;;;;;7.67;5.80;;;9.40;99.90;;;;;;5074644;28;20514;-75
2023/04/15 06:55:32;;;;;;;11.43;6.27;;;9.50;99.90;;;;;;5083056;28;20436;-75
2023/04/15 06:57:59;;;;;;;10.67;6.43;;;9.50;99.90;;;;;;5079470;28;20850;-75
2023/04/15 07:00:27;;;;;;;8.33;5.23;;;9.40;99.90;;;;;;5085507;28;20466;-76
2023/04/15 07:02:55;;;;;;;10.80;6.87;;;9.50;99.90;;;;;;5078944;28;20471;-75
2023/04/15 07:05:22;;;;;;;12.00;8.33;;;9.50;99.90;;;;;;5084340;28;20446;-76
2023/04/15 07:07:50;;;;;;;8.27;5.27;;;9.60;99.90;;;;;;5066331;28;20497;-77
2023/04/15 07:10:17;;;;;;;12.50;6.37;;;9.80;99.90;;;;;;5073167;28;20457;-76
2023/04/15 07:12:45;;;;;;;10.83;6.50;;;9.80;99.90;;;;;;5075145;28;20564;-76
2023/04/15 07:15:12;;;;;;;8.97;5.97;;;9.90;99.90;;;;;;5089199;28;20493;-76
2023/04/15 07:17:39;;;;;;;6.57;5.10;;;9.80;99.90;;;;;;5083113;28;20468;-76
2023/04/15 07:20:09;;;;;;;8.43;6.20;;;10.00;99.90;;;;;;5093893;28;20493;-77
2023/04/15 07:22:36;;;;;;;9.80;5.30;;;10.10;99.90;;;;;;5095907;28;20488;-75
2023/04/15 07:25:03;;;;;;;14.77;7.60;;;10.30;99.90;;;;;;5081986;28;20508;-76
2023/04/15 07:27:33;;;;;;;7.30;5.87;;;10.40;99.90;;;;;;5092060;28;20457;-76
2023/04/15 07:30:01;;;;;;;11.97;5.17;;;10.30;99.90;;;;;;5093084;28;20473;-76
2023/04/15 07:32:31;;;;;;;8.10;4.80;;;10.10;99.90;;;;;;5083329;28;20930;-76
2023/04/15 07:34:58;;;;;;;15.57;6.93;;;10.10;99.90;;;;;;5038100;28;20532;-76
2023/04/15 07:37:25;;;;;;;6.50;4.97;;;10.30;99.90;;;;;;5063495;28;20468;-75
2023/04/15 07:39:55;;;;;;;8.83;4.60;;;10.30;99.90;;;;;;5085995;28;20483;-75
2023/04/15 07:42:22;;;;;;;9.90;5.30;;;10.50;99.90;;;;;;5088116;28;20462;-76
2023/04/15 07:44:49;;;;;;;5.77;4.30;;;10.50;99.90;;;;;;5093088;28;20501;-75
2023/04/15 07:47:19;;;;;;;12.43;5.93;;;10.30;99.90;;;;;;5079899;28;20461;-77
2023/04/15 07:49:50;;;;;;;7.67;5.17;;;10.40;99.90;;;;;;5091593;28;20458;-76
2023/04/15 07:52:17;;;;;;;6.93;5.20;;;10.70;99.90;;;;;;5051982;28;20474;-76
2023/04/15 07:54:45;;;;;;;5.63;3.87;;;10.70;99.90;;;;;;5084202;28;20531;-77
2023/04/15 07:57:13;;;;;;;8.10;5.57;;;11.00;99.90;;;;;;5078016;28;20473;-76
2023/04/15 07:59:40;;;;;;;6.80;5.47;;;11.20;99.90;;;;;;5089836;28;20455;-75
2023/04/15 08:02:08;;;;;;;10.67;7.43;;;11.30;99.90;;;;;;5080742;28;20458;-76
2023/04/15 08:04:38;;;;;;;7.63;4.40;;;11.00;99.90;;;;;;5086146;28;20809;-76
2023/04/15 08:07:05;;;;;;;3.80;2.90;;;11.00;99.90;;;;;;5080760;28;20455;-76
2023/04/15 08:09:32;;;;;;;6.47;4.57;;;11.00;99.90;;;;;;5080061;28;20490;-76
2023/04/15 08:11:59;;;;;;;7.50;4.50;;;11.30;99.90;;;;;;5070335;28;20947;-77
2023/04/15 08:14:28;;;;;;;6.33;3.60;;;11.50;99.90;;;;;;5079291;28;20504;-77
2023/04/15 08:16:56;;;;;;;6.13;4.03;;;11.40;99.90;;;;;;5088843;28;20450;-76
2023/04/15 08:19:23;;;;;;;6.00;4.00;;;11.40;99.90;;;;;;5074391;28;20461;-76
2023/04/15 08:21:53;;;;;;;5.70;2.37;;;11.50;99.90;;;;;;5075631;28;20748;-76
2023/04/15 08:24:20;;;;;;;4.30;2.70;;;11.50;99.90;;;;;;5071836;28;20993;-76
2023/04/15 08:26:47;;;;;;;3.70;3.03;;;11.20;99.90;;;;;;5089844;28;20467;-77
2023/04/15 08:29:14;;;;;;;7.80;3.27;;;11.10;99.90;;;;;;5084016;28;20471;-74
2023/04/15 08:31:41;;;;;;;4.13;3.13;;;11.60;99.90;;;;;;5060072;28;20452;-76
2023/04/15 08:34:12;;;;;;;4.60;2.90;;;11.70;99.90;;;;;;5089037;28;20493;-75
2023/04/15 08:36:40;;;;;;;5.70;2.80;;;12.00;99.90;;;;;;5082331;28;20458;-75
2023/04/15 08:39:10;;;;;;;4.10;2.93;;;12.20;99.90;;;;;;5060490;28;20506;-77
2023/04/15 08:41:45;;;;;;;4.90;3.30;;;12.40;99.90;;;;;;5104335;28;20477;-76
2023/04/15 08:44:13;;;;;;;3.57;2.73;;;12.30;99.90;;;;;;5085534;28;20477;-76
2023/04/15 08:46:43;;;;;;;6.00;4.47;;;12.20;99.90;;;;;;5077760;28;20466;-77
2023/04/15 08:49:12;;;;;;;3.77;3.13;;;12.30;99.90;;;;;;5071068;28;20463;-75
2023/04/15 08:51:40;;;;;;;4.67;3.57;;;12.20;99.90;;;;;;5083964;28;20493;-75
2023/04/15 08:54:09;;;;;;;7.30;5.00;;;12.00;99.90;;;;;;5087695;28;20477;-77
2023/04/15 08:56:36;;;;;;;5.63;3.53;;;12.20;99.90;;;;;;5080160;28;20547;-76
2023/04/15 08:59:04;;;;;;;8.13;4.73;;;11.90;99.90;;;;;;5084246;28;20827;-75
2023/04/15 09:01:32;;;;;;;11.13;3.47;;;11.70;99.90;;;;;;5076265;28;20935;-76
2023/04/15 09:04:00;;;;;;;4.80;3.50;;;11.80;99.90;;;;;;5076933;28;20474;-77
2023/04/15 09:06:27;;;;;;;5.60;3.80;;;11.70;99.90;;;;;;5082217;28;20788;-77
2023/04/15 09:08:54;;;;;;;6.80;4.03;;;11.60;99.90;;;;;;5072707;28;20500;-75
2023/04/15 09:11:23;;;;;;;6.77;4.17;;;11.40;99.90;;;;;;5076856;28;20553;-76
2023/04/15 09:13:58;;;;;;;6.40;4.13;;;11.30;99.90;;;;;;5083313;28;20899;-75
2023/04/15 09:16:26;;;;;;;5.50;3.60;;;11.30;99.90;;;;;;5062003;28;20452;-75
2023/04/15 09:18:55;;;;;;;4.77;3.77;;;11.10;99.90;;;;;;5032563;28;20464;-76
2023/04/15 09:21:22;;;;;;;4.27;2.47;;;11.10;99.90;;;;;;5050090;28;20563;-75
2023/04/15 09:23:57;;;;;;;7.63;6.03;;;11.00;99.90;;;;;;5061172;28;22346;-76
2023/04/15 09:26:36;;;;;;;4.03;3.40;;;11.00;99.90;;;;;;5083741;28;20989;-75
2023/04/15 09:29:12;;;;;;;8.40;4.20;;;10.90;99.90;;;;;;5069909;28;20472;-75
2023/04/15 09:31:39;;;;;;;4.10;2.70;;;10.90;99.90;;;;;;5069813;28;20484;-75
2023/04/15 09:34:07;;;;;;;7.43;5.70;;;11.00;99.90;;;;;;5070342;28;20574;-75
2023/04/15 09:36:53;;;;;;;6.17;3.63;;;10.90;99.90;;;;;;5064054;28;21100;-76
2023/04/15 09:39:20;;;;;;;7.20;5.30;;;10.90;99.90;;;;;;5064441;28;20470;-77
2023/04/15 09:42:05;;;;;;;9.03;4.23;;;11.00;99.90;;;;;;5096742;28;20457;-77
2023/04/15 09:44:34;;;;;;;7.83;4.33;;;11.20;99.90;;;;;;5086221;28;20844;-77
2023/04/15 09:47:02;;;;;;;11.60;5.67;;;11.30;99.90;;;;;;5082707;28;20969;-77
2023/04/15 09:49:29;;;;;;;4.60;2.93;;;11.10;99.90;;;;;;5081465;28;20458;-76
2023/04/15 09:52:00;;;;;;;4.53;3.50;;;11.10;99.90;;;;;;5080008;28;20669;-76
2023/04/15 09:54:35;;;;;;;7.10;3.17;;;11.20;99.90;;;;;;5080659;28;20473;-76
2023/04/15 09:57:08;;;;;;;3.83;2.60;;;11.10;99.90;;;;;;5081589;28;20435;-76
2023/04/15 09:59:37;;;;;;;3.87;3.13;;;11.10;99.90;;;;;;5085247;28;20468;-77
2023/04/15 10:02:06;;;;;;;5.70;4.93;;;11.10;99.90;;;;;;5083953;28;20436;-77
2023/04/15 10:04:36;;;;;;;4.87;3.60;;;11.20;99.90;;;;;;5082862;28;20454;-75
2023/04/15 10:07:05;;;;;;;7.03;3.73;;;11.20;99.90;;;;;;5086105;28;20564;-75
2023/04/15 10:09:33;;;;;;;6.33;4.67;;;11.10;99.90;;;;;;5083614;28;20494;-75
2023/04/15 10:12:01;;;;;;;6.30;3.90;;;11.20;99.90;;;;;;5085985;28;20465;-77
2023/04/15 10:14:34;;;;;;;5.27;3.23;;;11.20;99.90;;;;;;5080046;28;20531;-77
2023/04/15 10:17:02;;;;;;;3.70;2.73;;;11.40;99.90;;;;;;5082356;28;20469;-74
2023/04/15 10:19:33;;;;;;;4.47;3.07;;;11.50;99.90;;;;;;5080922;28;20495;-75
2023/04/15 10:22:03;;;;;;;3.10;2.33;;;11.40;99.90;;;;;;5080460;28;20839;-75
2023/04/15 10:24:33;;;;;;;3.50;3.17;;;11.30;99.90;;;;;;5084789;28;20458;-76
2023/04/15 10:27:01;;;;;;;6.10;3.43;;;11.20;99.90;;;;;;5052402;28;20417;-76
2023/04/15 10:29:28;;;;;;;7.60;2.90;;;11.10;99.90;;;;;;5078331;28;20521;-75
2023/04/15 10:31:57;;;;;;;4.07;3.03;;;11.00;99.90;;;;;;5090472;28;20464;-75
2023/04/15 10:34:25;;;;;;;2.50;2.30;;;11.00;99.90;;;;;;5086532;28;20504;-76
2023/04/15 10:36:55;;;;;;;5.77;3.10;;;11.10;99.90;;;;;;5085141;28;20457;-76
2023/04/15 10:39:42;;;;;;;7.30;3.43;;;11.00;99.90;;;;;;5092768;28;20602;-78
2023/04/15 10:42:16;;;;;;;6.30;3.60;;;10.90;99.90;;;;;;5094307;28;20502;-77
2023/04/15 10:44:45;;;;;;;4.00;2.80;;;10.70;99.90;;;;;;5088020;28;20803;-77
2023/04/15 10:47:18;;;;;;;4.70;3.10;;;10.60;99.90;;;;;;5085588;28;20477;-78
2023/04/15 10:49:47;;;;;;;5.07;4.03;;;10.70;99.90;;;;;;5085199;28;20443;-77
2023/04/15 10:52:16;;;;;;;6.80;2.80;;;11.00;99.90;;;;;;5086046;28;20510;-77
2023/04/15 10:54:46;;;;;;;7.70;3.80;;;11.10;99.90;;;;;;5087231;28;20483;-76
2023/04/15 10:57:23;;;;;;;4.00;2.30;;;11.00;99.90;;;;;;5087261;28;20446;-76
2023/04/15 11:00:12;;;;;;;14.03;3.37;;;11.10;99.90;;;;;;5094996;28;20502;-77
2023/04/15 11:02:42;;;;;;;3.53;3.10;;;11.10;99.90;;;;;;5093945;28;20489;-76
2023/04/15 11:05:11;;;;;;;9.03;5.73;;;11.00;99.90;;;;;;5085451;28;20455;-76
2023/04/15 11:07:40;;;;;;;6.47;3.60;;;10.90;99.90;;;;;;5074568;28;20498;-76
2023/04/15 11:10:50;;;;;;;6.40;3.57;;;10.90;99.90;;;;;;5090137;28;20445;-76
2023/04/15 11:13:21;;;;;;;5.90;4.03;;;10.90;99.90;;;;;;5090933;28;20539;-77
2023/04/15 11:15:50;;;;;;;20.63;4.60;;;11.20;99.90;;;;;;5090775;28;20412;-76
2023/04/15 11:18:24;;;;;;;4.33;3.40;;;11.20;99.90;;;;;;5085823;28;20464;-76
2023/04/15 11:20:53;;;;;;;4.97;2.80;;;11.30;99.90;;;;;;5086493;28;21330;-75
2023/04/15 11:23:29;;;;;;;6.80;4.63;;;11.30;99.90;;;;;;5084032;28;20738;-76
2023/04/15 11:25:59;;;;;;;4.67;3.20;;;11.20;99.90;;;;;;5079818;28;20485;-76
2023/04/15 11:28:30;;;;;;;5.47;4.43;;;11.20;99.90;;;;;;5085355;28;20465;-75
2023/04/15 11:30:58;;;;;;;7.50;4.03;;;11.10;99.90;;;;;;5087703;28;20557;-76
2023/04/15 11:33:27;;;;;;;11.90;3.67;;;11.10;99.90;;;;;;5089758;28;20483;-76
2023/04/15 11:35:54;;;;;;;5.40;3.00;;;11.00;99.90;;;;;;5068154;28;20469;-76
2023/04/15 11:38:23;;;;;;;3.90;2.87;;;10.80;99.90;;;;;;5073099;28;20466;-77
2023/04/15 11:40:52;;;;;;;5.07;4.40;;;10.90;99.90;;;;;;5073745;28;20505;-76
2023/04/15 11:43:23;;;;;;;2.97;2.23;;;10.90;99.90;;;;;;5082942;28;20997;-75
2023/04/15 11:45:52;;;;;;;5.47;3.07;;;10.90;99.90;;;;;;5076393;28;20691;-76
2023/04/15 11:48:20;;;;;;;5.70;3.67;;;11.00;99.90;;;;;;5089621;28;20457;-76
2023/04/15 11:50:53;;;;;;;3.30;3.00;;;11.10;99.90;;;;;;5088591;28;20432;-75
2023/04/15 11:53:20;;;;;;;4.70;3.70;;;11.20;99.90;;;;;;5062243;28;20877;-76
2023/04/15 11:55:50;;;;;;;4.83;3.60;;;11.30;99.90;;;;;;5078706;28;20472;-76
2023/04/15 11:58:19;;;;;;;7.80;3.27;;;11.30;99.90;;;;;;5087056;28;20449;-76
2023/04/15 12:00:52;;;;;;;7.93;2.80;;;11.50;99.90;;;;;;5084650;28;20463;-75
2023/04/15 12:03:49;;;;;;;5.10;3.00;;;11.50;99.90;;;;;;5071259;28;20740;-76
2023/04/15 12:06:19;;;;;;;6.53;3.43;;;11.40;99.90;;;;;;5084875;28;20504;-75
2023/04/15 12:08:58;;;;;;;5.80;3.73;;;11.50;99.90;;;;;;5087624;28;20449;-75
2023/04/15 12:11:42;;;;;;;4.80;3.40;;;11.60;99.90;;;;;;5084064;28;20457;-77
2023/04/15 12:14:17;;;;;;;3.67;2.00;;;11.80;99.90;;;;;;5077543;28;20481;-77
2023/04/15 12:16:47;;;;;;;3.47;2.93;;;11.90;99.90;;;;;;5081960;28;20433;-77
2023/04/15 12:19:16;;;;;;;6.27;3.67;;;11.90;99.90;;;;;;5083676;28;20544;-76
2023/04/15 12:21:47;;;;;;;6.10;3.43;;;12.00;99.90;;;;;;5072823;28;20544;-76
2023/04/15 12:24:14;;;;;;;7.47;4.30;;;12.10;99.90;;;;;;5087582;28;20446;-76
2023/04/15 12:26:46;;;;;;;3.00;2.70;;;11.80;99.90;;;;;;5074337;28;20742;-76
2023/04/15 12:29:15;;;;;;;4.77;3.00;;;11.70;99.90;;;;;;5078709;28;20485;-76
2023/04/15 12:31:51;;;;;;;4.77;2.73;;;11.60;99.90;;;;;;5026731;28;20832;-76
2023/04/15 12:34:25;;;;;;;4.03;2.87;;;11.50;99.90;;;;;;5080566;28;20559;-76
2023/04/15 12:37:08;;;;;;;4.00;3.00;;;11.60;99.90;;;;;;5082078;28;20453;-82
2023/04/15 12:39:36;;;;;;;8.40;2.93;;;11.50;99.90;;;;;;5083121;28;20437;-75
2023/04/15 12:42:04;;;;;;;3.20;2.90;;;11.50;99.90;;;;;;5060525;28;20466;-75
2023/04/15 12:44:31;;;;;;;3.53;2.63;;;11.60;99.90;;;;;;5066156;28;20886;-71
2023/04/15 12:46:59;;;;;;;3.40;2.60;;;11.50;99.90;;;;;;5078456;28;20578;-71
2023/04/15 12:49:27;;;;;;;5.10;3.40;;;11.40;99.90;;;;;;5072344;28;20490;-69
2023/04/15 12:51:58;;;;;;;4.13;2.30;;;11.40;99.90;;;;;;5049694;28;24678;-67
2023/04/15 12:54:27;;;;;;;5.07;3.17;;;11.50;99.90;;;;;;5067667;28;20568;-68
2023/04/15 12:56:55;;;;;;;3.70;2.33;;;11.40;99.90;;;;;;5067068;28;20503;-70
2023/04/15 12:59:23;;;;;;;5.37;3.43;;;11.40;99.90;;;;;;5063252;28;20465;-69